EFTU

Turku Airport

Turku, Finland
METAR EFTU 211520Z AUTO 31015KT 9999 FEW049/// OVC056/// 10/01 Q1005
Observed Flight Rules
Apr-21 @ 15:20 UTC (17 minutes ago) Visual Flight Rules
Wind Visibility Clouds
310° at 15 knots 10,000+ meters
  • Few at 4,900' AGL
  • Overcast at 5,600' AGL
Temperatures Readings
Current 10°C / 50°F
Dewpoint 1°C / 34°F
Humidity 54%
Altimeter 29.68" Hg
Pressure 1005 hPa
Elevation 59
METAR EFTU 211520Z AUTO 31015KT 9999 FEW049/// OVC056/// 10/01 Q1005
Observed Flight Rules
Apr-21 @ 15:20 UTC
(17 minutes ago)
VFR
Wind Visibility
310° at 15 knots 10,000+ meters
Clouds
  • Few at 4,900' AGL
  • Overcast at 5,600' AGL
Temperature Dewpoint
10°C / 50°F 1°C / 34°F
Humidity Altimeter Pressure
54% 29.68" Hg 1005 hPa